Time;durP1;ratioP1;P1;durP2;ratioP2;P2;SDS_P1;SDS_P2;PMS_P1;PMS_P2;Temp;Humidity;BMP_temperature;BMP_pressure;BME280_temperature;BME280_humidity;BME280_pressure;Samples;Min_cycle;Max_cycle;Signal;HPM_P1;HPM_P2
2023/04/12 00:00:10;;;;;;;7.40;4.70;;;;;;;5.32;85.77;98333.77;223794;1300;24289;-79
2023/04/12 00:05:13;;;;;;;6.80;4.60;;;;;;;5.29;85.67;98331.41;223792;1300;22203;-76
2023/04/12 00:10:15;;;;;;;6.00;3.80;;;;;;;5.28;85.77;98330.06;223987;1301;22937;-78
2023/04/12 00:15:17;;;;;;;7.20;4.30;;;;;;;5.28;85.78;98327.35;223885;1301;22216;-76
2023/04/12 00:20:19;;;;;;;6.30;3.70;;;;;;;5.28;85.65;98328.95;224003;1299;24993;-77
2023/04/12 00:25:21;;;;;;;5.30;3.60;;;;;;;5.28;85.72;98327.36;223907;1300;24219;-80
2023/04/12 00:30:23;;;;;;;5.20;3.30;;;;;;;5.28;85.60;98324.41;224006;1299;24349;-79
2023/04/12 00:35:25;;;;;;;8.80;3.60;;;;;;;5.27;85.41;98320.08;223995;1301;22191;-79
2023/04/12 00:40:27;;;;;;;6.60;3.60;;;;;;;5.28;85.48;98317.80;223997;1299;24146;-78
2023/04/12 00:45:30;;;;;;;5.70;3.90;;;;;;;5.28;85.34;98313.17;223898;1299;22321;-76
2023/04/12 00:50:36;;;;;;;6.90;3.80;;;;;;;5.29;85.43;98313.21;224016;1289;24218;-78
2023/04/12 00:55:40;;;;;;;4.90;3.30;;;;;;;5.31;85.39;98310.59;223777;1299;24399;-80
2023/04/12 01:00:48;;;;;;;5.20;3.70;;;;;;;5.34;85.41;98308.10;223901;1296;24309;-76
2023/04/12 01:06:31;;;;;;;6.50;4.30;;;;;;;5.37;85.31;98308.92;224033;1296;24184;-80
2023/04/12 01:12:07;;;;;;;7.60;5.50;;;;;;;5.38;85.14;98310.37;223601;1301;24197;-79
2023/04/12 01:17:19;;;;;;;11.20;6.30;;;;;;;5.38;85.15;98310.70;223775;1299;24232;-78
2023/04/12 01:22:32;;;;;;;9.80;6.00;;;;;;;5.36;85.01;98316.19;223896;1301;22195;-78
2023/04/12 01:27:41;;;;;;;9.10;5.70;;;;;;;5.33;85.02;98315.80;223788;1300;24241;-79
2023/04/12 01:32:46;;;;;;;10.70;6.10;;;;;;;5.33;84.85;98317.96;223789;1296;25484;-80
2023/04/12 01:37:48;;;;;;;9.60;5.10;;;;;;;5.29;84.72;98310.46;223774;1298;24264;-77
2023/04/12 01:42:51;;;;;;;7.40;4.80;;;;;;;5.22;84.64;98309.61;223976;1299;22398;-76
2023/04/12 01:47:55;;;;;;;7.60;4.80;;;;;;;5.16;84.75;98308.41;223674;1301;24927;-77
2023/04/12 01:53:17;;;;;;;9.10;4.70;;;;;;;5.11;84.69;98310.48;223784;1293;22812;-76
2023/04/12 01:58:21;;;;;;;7.50;5.20;;;;;;;5.07;84.81;98307.42;223927;1301;24581;-77
2023/04/12 02:03:23;;;;;;;5.80;4.40;;;;;;;5.05;84.72;98301.97;223726;1296;22227;-79
2023/04/12 02:08:25;;;;;;;7.10;4.80;;;;;;;5.04;84.64;98301.19;223859;1298;24826;-77
2023/04/12 02:13:27;;;;;;;8.30;4.80;;;;;;;5.02;84.72;98300.48;223721;1299;24988;-80
2023/04/12 02:18:30;;;;;;;6.70;4.50;;;;;;;5.01;84.75;98292.55;223780;1301;24223;-76
2023/04/12 02:23:32;;;;;;;8.50;4.80;;;;;;;5.00;84.79;98294.95;223973;1300;24197;-80
2023/04/12 02:28:36;;;;;;;8.40;5.60;;;;;;;4.98;84.66;98293.60;223916;1301;24291;-77
2023/04/12 02:33:39;;;;;;;7.70;5.10;;;;;;;4.94;84.78;98295.59;223663;1301;22187;-78
2023/04/12 02:38:43;;;;;;;8.50;5.30;;;;;;;4.91;84.74;98294.47;223965;1299;24332;-77
2023/04/12 02:43:45;;;;;;;8.20;5.30;;;;;;;4.89;84.71;98292.21;223899;1296;24117;-78
2023/04/12 02:48:48;;;;;;;8.30;5.40;;;;;;;4.86;84.46;98291.91;223745;1301;22175;-78
2023/04/12 02:53:51;;;;;;;9.00;5.90;;;;;;;4.83;84.50;98287.75;223733;1300;22254;-75
2023/04/12 02:58:56;;;;;;;6.40;5.10;;;;;;;4.78;84.38;98285.31;223933;1298;24223;-76
2023/04/12 03:04:09;;;;;;;8.50;5.80;;;;;;;4.71;84.34;98284.45;223743;1291;24852;-77
2023/04/12 03:09:19;;;;;;;7.20;5.70;;;;;;;4.69;84.46;98285.77;223695;1301;24348;-79
2023/04/12 03:14:21;;;;;;;10.00;6.00;;;;;;;4.64;84.54;98290.41;223986;1301;24312;-80
2023/04/12 03:19:23;;;;;;;10.10;6.30;;;;;;;4.58;84.30;98292.61;223753;1301;24831;-76
2023/04/12 03:24:28;;;;;;;9.80;6.10;;;;;;;4.53;84.33;98292.46;223694;1301;24232;-77
2023/04/12 03:29:31;;;;;;;11.30;6.50;;;;;;;4.50;84.40;98291.60;223857;1299;22239;-77
2023/04/12 03:34:34;;;;;;;12.10;6.90;;;;;;;4.44;84.40;98292.71;223636;1299;24130;-76
2023/04/12 03:39:46;;;;;;;4.00;3.60;;;;;;;4.36;84.47;98288.02;223721;1299;22348;-76
2023/04/12 03:44:52;;;;;;;10.80;6.70;;;;;;;4.30;84.44;98284.95;223733;1289;24889;-77
2023/04/12 03:50:02;;;;;;;10.20;6.50;;;;;;;4.27;84.58;98285.30;223738;1299;24196;-78
2023/04/12 03:55:08;;;;;;;8.80;6.50;;;;;;;4.22;84.52;98278.45;223701;1299;24146;-78
2023/04/12 04:00:12;;;;;;;8.20;5.60;;;;;;;4.14;84.46;98277.27;223874;1301;24383;-80
2023/04/12 04:05:32;;;;;;;11.00;6.10;;;;;;;4.04;84.16;98273.73;223705;1301;25366;-77
2023/04/12 04:10:35;;;;;;;8.90;5.80;;;;;;;3.95;84.44;98273.55;223636;1299;22855;-76
2023/04/12 04:15:37;;;;;;;10.90;6.50;;;;;;;3.85;84.46;98269.63;223747;1296;24209;-80
2023/04/12 04:20:39;;;;;;;11.70;6.20;;;;;;;3.78;84.44;98265.52;223959;1300;24285;-77
2023/04/12 04:25:43;;;;;;;8.50;5.60;;;;;;;3.72;84.52;98265.39;223746;1290;24286;-75
2023/04/12 04:30:47;;;;;;;8.90;6.30;;;;;;;3.71;84.60;98267.58;223939;1300;24778;-79
2023/04/12 04:35:51;;;;;;;11.90;7.40;;;;;;;3.75;84.62;98270.14;223501;1299;24210;-78
2023/04/12 04:40:58;;;;;;;15.50;9.60;;;;;;;3.83;84.61;98279.26;223932;1301;24807;-78
2023/04/12 04:46:06;;;;;;;12.00;8.70;;;;;;;3.92;84.47;98285.32;223675;1300;24288;-77
2023/04/12 04:51:09;;;;;;;12.60;9.30;;;;;;;3.99;84.19;98285.45;223722;1299;22262;-77
2023/04/12 04:56:11;;;;;;;11.60;9.00;;;;;;;4.00;84.04;98291.44;223941;1299;24248;-76
2023/04/12 05:01:15;;;;;;;11.90;7.30;;;;;;;4.04;84.09;98302.88;223874;1291;24119;-77
2023/04/12 05:06:18;;;;;;;6.00;4.90;;;;;;;4.12;84.27;98311.95;223730;1290;22266;-77
2023/04/12 05:11:20;;;;;;;12.70;7.80;;;;;;;4.19;84.21;98318.21;223661;1296;25292;-77
2023/04/12 05:16:23;;;;;;;8.70;6.80;;;;;;;4.29;84.23;98324.35;223748;1301;22227;-77
2023/04/12 05:21:26;;;;;;;12.20;7.90;;;;;;;4.39;84.24;98317.84;223732;1291;24870;-76
2023/04/12 05:26:28;;;;;;;12.10;7.40;;;;;;;4.49;83.89;98314.49;223961;1298;24364;-78
2023/04/12 05:31:31;;;;;;;12.00;7.60;;;;;;;4.57;84.15;98307.88;223785;1299;24210;-76
2023/04/12 05:36:36;;;;;;;11.50;7.50;;;;;;;4.70;83.95;98307.66;223648;1296;24210;-80
2023/04/12 05:41:38;;;;;;;13.60;8.30;;;;;;;4.77;83.52;98309.31;223605;1302;24214;-79
2023/04/12 05:46:40;;;;;;;11.40;8.60;;;;;;;4.80;83.63;98316.80;223886;1298;24311;-74
2023/04/12 05:51:42;;;;;;;12.80;8.00;;;;;;;4.92;83.82;98318.13;223629;1299;24223;-75
2023/04/12 05:56:56;;;;;;;12.20;8.60;;;;;;;5.05;83.65;98315.52;223665;1300;24216;-78
2023/04/12 06:01:59;;;;;;;11.50;7.90;;;;;;;5.11;83.33;98314.34;223880;1286;24927;-77
2023/04/12 06:07:04;;;;;;;16.70;11.00;;;;;;;5.19;83.23;98308.60;223466;1289;24327;-77
2023/04/12 06:12:06;;;;;;;9.90;6.70;;;;;;;5.37;83.60;98293.55;223730;1289;25080;-79
2023/04/12 06:17:10;;;;;;;9.00;6.90;;;;;;;5.60;83.28;98288.73;223396;1285;24514;-76
2023/04/12 06:22:14;;;;;;;10.80;7.10;;;;;;;5.77;82.89;98280.40;223533;1292;24303;-77
2023/04/12 06:27:19;;;;;;;10.70;6.90;;;;;;;5.91;82.76;98271.17;223342;1280;24801;-78
2023/04/12 06:32:21;;;;;;;9.10;6.60;;;;;;;6.12;82.47;98267.06;221448;1279;22573;-77
2023/04/12 06:37:25;;;;;;;8.50;6.20;;;;;;;6.31;82.04;98259.66;221438;1281;22563;-77
2023/04/12 06:42:27;;;;;;;8.00;6.10;;;;;;;6.28;81.97;98257.55;221545;1283;139855;-77
2023/04/12 06:47:31;;;;;;;10.10;5.80;;;;;;;6.19;81.87;98259.45;221713;1287;138537;-79
2023/04/12 06:52:33;;;;;;;11.60;7.20;;;;;;;6.14;82.13;98261.73;221350;1287;138886;-77
2023/04/12 06:57:34;;;;;;;10.10;7.00;;;;;;;6.15;82.12;98259.89;221317;1283;22506;-77
2023/04/12 07:02:37;;;;;;;9.80;6.40;;;;;;;6.21;82.31;98261.38;221381;1283;138380;-79
2023/04/12 07:07:39;;;;;;;11.20;7.10;;;;;;;6.24;81.85;98262.60;221409;1283;138533;-77
2023/04/12 07:12:41;;;;;;;10.50;6.90;;;;;;;6.35;82.20;98259.23;221566;1280;139939;-79
2023/04/12 07:17:44;;;;;;;9.70;6.40;;;;;;;6.50;82.39;98258.13;221172;1283;138767;-79
2023/04/12 07:22:46;;;;;;;7.30;5.70;;;;;;;6.71;82.57;98255.05;221388;1278;139626;-77
2023/04/12 07:27:48;;;;;;;8.70;6.10;;;;;;;6.95;82.27;98258.84;221210;1282;138821;-78
2023/04/12 07:32:53;;;;;;;10.40;5.90;;;;;;;7.22;81.81;98258.89;221514;1281;22559;-79
2023/04/12 07:38:03;;;;;;;7.70;6.40;;;;;;;7.36;81.09;98256.06;221635;1283;138387;-78
2023/04/12 07:43:05;;;;;;;11.30;7.50;;;;;;;7.51;81.50;98253.08;221257;1280;138724;-80
2023/04/12 07:48:07;;;;;;;8.60;6.00;;;;;;;7.79;81.32;98249.69;221231;1280;138744;-80
2023/04/12 07:53:21;;;;;;;8.00;5.60;;;;;;;8.05;80.62;98247.70;221431;1282;139063;-78
2023/04/12 07:58:23;;;;;;;7.60;6.40;;;;;;;8.15;79.83;98243.69;221212;1281;139248;-79
2023/04/12 08:03:25;;;;;;;11.20;6.70;;;;;;;8.32;79.94;98229.52;221201;1286;22778;-79
2023/04/12 08:08:28;;;;;;;5.70;5.00;;;;;;;8.62;80.08;98235.16;221353;1288;138519;-76
2023/04/12 08:13:30;;;;;;;5.80;5.00;;;;;;;8.75;78.89;98236.83;221051;1283;138403;-79
2023/04/12 08:18:32;;;;;;;7.10;4.90;;;;;;;8.78;78.69;98238.41;221301;1295;139223;-79
2023/04/12 08:23:34;;;;;;;6.30;5.30;;;;;;;8.81;78.42;98232.61;221148;1280;139763;-80
2023/04/12 08:28:36;;;;;;;6.00;5.10;;;;;;;8.99;78.38;98228.42;221456;1295;138677;-79
2023/04/12 08:33:40;;;;;;;7.70;6.70;;;;;;;9.46;79.01;98224.30;221185;1279;137674;-76
2023/04/12 08:38:42;;;;;;;4.30;3.90;;;;;;;10.10;78.38;98223.66;221603;1297;22587;-77
2023/04/12 08:43:47;;;;;;;3.90;3.20;;;;;;;10.55;76.87;98222.03;221204;1287;138587;-79
2023/04/12 08:48:55;;;;;;;3.80;2.80;;;;;;;10.62;74.67;98214.23;221203;1280;139065;-80
2023/04/12 08:53:57;;;;;;;4.20;3.80;;;;;;;10.50;74.10;98207.98;221309;1282;138847;-78
2023/04/12 08:59:01;;;;;;;4.70;3.70;;;;;;;10.49;73.73;98212.23;221136;1293;138983;-78
2023/04/12 09:04:07;;;;;;;5.40;3.10;;;;;;;10.60;74.06;98200.10;221202;1278;138878;-79
2023/04/12 09:09:10;;;;;;;3.80;3.00;;;;;;;10.71;73.42;98192.05;222163;1276;25422;-77
2023/04/12 09:14:22;;;;;;;2.80;2.60;;;;;;;10.75;72.93;98183.48;220366;1286;139181;-80
2023/04/12 09:19:39;;;;;;;3.30;3.00;;;;;;;11.08;73.67;98182.88;220909;1295;139024;-80
2023/04/12 09:24:49;;;;;;;4.10;3.10;;;;;;;11.57;73.38;98175.14;221158;1283;138828;-79
2023/04/12 09:30:05;;;;;;;3.30;2.70;;;;;;;12.05;73.10;98170.73;220809;1283;139033;-81
2023/04/12 09:35:08;;;;;;;3.80;2.50;;;;;;;12.46;71.62;98167.65;221257;1280;138995;-80
2023/04/12 09:40:11;;;;;;;2.50;2.30;;;;;;;12.38;69.76;98163.06;221161;1283;138906;-82
2023/04/12 09:45:23;;;;;;;3.00;2.60;;;;;;;12.26;69.53;98155.20;221206;1296;22779;-78
2023/04/12 09:50:32;;;;;;;3.60;2.50;;;;;;;12.31;69.19;98151.17;221046;1280;137993;-80
2023/04/12 09:55:34;;;;;;;5.50;2.40;;;;;;;12.39;69.24;98145.20;221400;1284;140299;-79
2023/04/12 10:00:37;;;;;;;3.00;2.30;;;;;;;12.59;68.68;98137.51;221589;1295;139243;-79
2023/04/12 10:05:41;;;;;;;3.40;1.80;;;;;;;12.65;67.46;98133.98;221349;1298;139305;-79
2023/04/12 10:10:45;;;;;;;2.30;1.70;;;;;;;12.84;67.11;98128.33;221560;1286;138890;-78
2023/04/12 10:15:49;;;;;;;2.20;1.70;;;;;;;13.13;66.81;98124.09;221102;1292;139029;-79
2023/04/12 10:20:52;;;;;;;4.00;1.70;;;;;;;13.53;66.54;98117.96;221490;1286;190337;-80
2023/04/12 10:25:55;;;;;;;1.50;1.40;;;;;;;13.87;65.92;98113.48;221178;1279;139129;-79
2023/04/12 10:30:59;;;;;;;1.50;1.40;;;;;;;13.91;63.19;98113.11;221187;1287;139529;-79
2023/04/12 10:36:05;;;;;;;1.40;1.30;;;;;;;13.69;63.30;98110.94;221619;1292;138767;-79
2023/04/12 10:41:15;;;;;;;3.20;2.00;;;;;;;13.58;62.97;98112.73;221012;1302;138881;-80
2023/04/12 10:46:38;;;;;;;3.40;1.80;;;;;;;13.55;63.46;98105.98;221421;1299;139080;-79
2023/04/12 10:52:20;;;;;;;3.30;1.70;;;;;;;13.42;62.89;98095.98;221624;1296;138938;-79
2023/04/12 10:57:44;;;;;;;1.90;1.60;;;;;;;13.28;63.25;98092.23;220480;1286;22547;-81
2023/04/12 11:03:07;;;;;;;2.50;2.10;;;;;;;13.16;62.95;98078.56;220930;1286;22554;-82
2023/04/12 11:08:11;;;;;;;2.80;1.70;;;;;;;13.15;63.21;98077.73;221138;1295;138698;-82
2023/04/12 11:13:13;;;;;;;2.10;1.50;;;;;;;13.24;63.47;98074.19;221562;1296;139080;-81
2023/04/12 11:18:16;;;;;;;2.10;1.90;;;;;;;13.34;63.40;98068.84;221914;1296;139698;-83
2023/04/12 11:23:18;;;;;;;3.60;1.40;;;;;;;13.39;62.88;98068.29;221376;1287;139197;-80
2023/04/12 11:28:22;;;;;;;1.80;1.40;;;;;;;13.32;62.17;98065.97;221478;1299;138867;-80
2023/04/12 11:33:38;;;;;;;2.20;1.60;;;;;;;13.10;61.73;98063.99;221557;1294;22553;-79
2023/04/12 11:38:40;;;;;;;;;;;;;;;13.12;62.50;98059.41;221219;1286;138743;-78
2023/04/12 11:43:44;;;;;;;2.20;1.70;;;;;;;13.09;61.88;98058.83;221226;1296;125236;-80
2023/04/12 11:48:46;;;;;;;2.60;2.00;;;;;;;12.99;61.93;98051.80;220972;1283;139237;-79
2023/04/12 11:53:52;;;;;;;2.60;1.80;;;;;;;13.05;62.13;98047.09;221655;1287;138860;-80
2023/04/12 11:58:54;;;;;;;2.00;1.60;;;;;;;13.04;61.42;98041.60;221184;1280;138677;-80
2023/04/12 12:04:00;;;;;;;1.70;1.60;;;;;;;13.17;61.58;98031.10;221197;1289;138804;-80
2023/04/12 12:09:05;;;;;;;2.70;1.60;;;;;;;13.32;61.66;98019.48;221431;1280;22774;-85
2023/04/12 12:14:07;;;;;;;3.00;1.70;;;;;;;13.50;61.35;98015.58;221469;1293;138136;-80
2023/04/12 12:19:09;;;;;;;2.00;1.80;;;;;;;13.64;61.35;98007.86;220840;1280;138865;-79
2023/04/12 12:24:13;;;;;;;3.10;1.80;;;;;;;13.78;61.21;98002.33;221254;1283;139201;-79
2023/04/12 12:29:20;;;;;;;2.50;2.00;;;;;;;13.79;60.27;97991.79;221280;1295;138974;-80
2023/04/12 12:34:23;;;;;;;3.30;2.00;;;;;;;13.83;60.21;97989.16;221088;1295;139470;-80
2023/04/12 12:39:25;;;;;;;2.60;1.70;;;;;;;13.83;59.83;97982.94;221351;1282;23347;-80
2023/04/12 12:44:27;;;;;;;2.60;2.00;;;;;;;13.70;59.72;97986.61;221493;1287;138594;-81
2023/04/12 12:49:30;;;;;;;2.50;2.10;;;;;;;13.60;59.29;97982.11;221503;1299;138699;-81
2023/04/12 12:54:32;;;;;;;2.40;2.20;;;;;;;13.34;59.09;97974.16;221538;1290;138981;-80
2023/04/12 12:59:42;;;;;;;3.90;2.60;;;;;;;13.24;59.66;97966.20;221223;1292;138852;-81
2023/04/12 13:04:45;;;;;;;2.90;2.20;;;;;;;13.21;59.31;97954.77;221422;1295;139199;-81
2023/04/12 13:09:48;;;;;;;2.60;2.20;;;;;;;13.03;59.18;97946.85;221555;1299;138596;-80
2023/04/12 13:14:51;;;;;;;5.40;2.40;;;;;;;12.94;59.33;97939.91;221636;1286;23051;-78
2023/04/12 13:20:04;;;;;;;3.90;2.60;;;;;;;12.96;59.62;97934.02;221290;1295;138837;-77
2023/04/12 13:25:08;;;;;;;4.30;2.30;;;;;;;13.06;59.57;97930.59;221374;1286;138817;-80
2023/04/12 13:30:10;;;;;;;3.00;2.30;;;;;;;13.16;59.37;97929.87;221173;1282;138958;-79
2023/04/12 13:35:13;;;;;;;4.60;2.50;;;;;;;13.20;58.81;97925.04;221367;1282;138601;-81
2023/04/12 13:40:15;;;;;;;2.90;2.70;;;;;;;13.26;58.59;97917.73;221466;1279;139328;-79
2023/04/12 13:45:17;;;;;;;3.70;2.60;;;;;;;13.39;58.75;97910.89;221354;1296;23030;-80
2023/04/12 13:50:19;;;;;;;2.50;2.30;;;;;;;13.41;58.56;97903.19;221375;1280;138756;-79
2023/04/12 13:55:21;;;;;;;3.60;2.70;;;;;;;13.14;57.75;97898.86;221243;1282;138464;-80
2023/04/12 14:00:23;;;;;;;5.70;2.60;;;;;;;13.06;58.40;97897.39;220926;1287;138761;-80
2023/04/12 14:05:26;;;;;;;4.20;2.40;;;;;;;13.21;58.73;97897.02;221662;1283;23496;-80
2023/04/12 14:10:28;;;;;;;4.50;3.10;;;;;;;13.34;58.64;97888.67;221643;1293;22725;-79
2023/04/12 14:15:30;;;;;;;3.80;2.90;;;;;;;13.40;58.40;97883.59;221919;1299;22567;-81
2023/04/12 14:20:31;;;;;;;4.90;2.50;;;;;;;13.42;58.46;97883.00;222238;1296;26569;-82
2023/04/12 14:25:36;;;;;;;3.20;2.70;;;;;;;13.47;58.63;97881.30;221903;1302;22704;-80
2023/04/12 14:30:38;;;;;;;3.40;3.10;;;;;;;13.45;58.12;97877.86;221906;1283;22556;-80
2023/04/12 14:35:40;;;;;;;4.30;3.40;;;;;;;13.45;58.46;97878.77;222027;1299;22584;-80
2023/04/12 14:40:42;;;;;;;3.90;3.20;;;;;;;13.51;58.61;97874.73;221725;1303;22573;-81
2023/04/12 14:45:44;;;;;;;4.10;3.00;;;;;;;13.55;58.28;97874.34;221913;1297;22580;-81
2023/04/12 14:50:46;;;;;;;3.70;3.30;;;;;;;13.56;58.35;97869.70;221985;1299;23205;-81
2023/04/12 14:55:48;;;;;;;5.20;3.60;;;;;;;13.63;58.53;97857.55;221785;1302;22646;-82
2023/04/12 15:00:50;;;;;;;4.10;3.70;;;;;;;13.63;58.00;97852.13;221995;1301;23107;-82
2023/04/12 15:05:52;;;;;;;4.10;3.50;;;;;;;13.57;57.92;97851.73;221856;1302;22656;-83
2023/04/12 15:10:54;;;;;;;4.20;3.60;;;;;;;13.52;57.84;97845.61;222024;1299;22556;-80
2023/04/12 15:15:57;;;;;;;4.30;4.00;;;;;;;13.55;58.17;97843.77;222262;1296;22563;-81
2023/04/12 15:21:01;;;;;;;5.80;3.90;;;;;;;13.64;57.81;97842.08;221990;1302;25420;-81
2023/04/12 15:26:07;;;;;;;4.80;3.90;;;;;;;13.63;57.25;97837.44;222262;1299;22583;-81
2023/04/12 15:31:10;;;;;;;4.00;3.40;;;;;;;13.59;56.66;97830.44;221997;1302;22544;-82
2023/04/12 15:36:15;;;;;;;5.60;3.70;;;;;;;13.49;55.97;97832.77;222026;1296;25456;-82
2023/04/12 15:41:17;;;;;;;4.80;3.60;;;;;;;13.35;55.34;97834.65;222015;1302;22672;-80
2023/04/12 15:46:20;;;;;;;4.30;3.90;;;;;;;13.21;55.01;97828.04;222019;1302;22549;-82
2023/04/12 15:51:22;;;;;;;5.20;3.60;;;;;;;13.17;55.61;97823.69;222044;1302;22663;-81
2023/04/12 15:56:25;;;;;;;5.40;3.80;;;;;;;13.08;54.91;97821.47;221986;1296;22561;-82
2023/04/12 16:01:27;;;;;;;6.10;3.60;;;;;;;12.95;54.82;97818.89;222036;1296;22608;-81
2023/04/12 16:06:33;;;;;;;3.90;3.30;;;;;;;12.84;54.66;97811.42;222247;1293;23974;-80
2023/04/12 16:11:35;;;;;;;5.60;4.10;;;;;;;12.70;54.88;97806.52;221981;1299;22568;-80
2023/04/12 16:16:38;;;;;;;5.50;3.60;;;;;;;12.61;55.24;97808.45;221999;1302;22575;-81
2023/04/12 16:21:42;;;;;;;5.60;4.00;;;;;;;12.51;55.27;97804.29;221845;1298;22555;-79
2023/04/12 16:26:46;;;;;;;4.50;4.10;;;;;;;12.43;55.62;97799.76;222246;1295;22588;-82
2023/04/12 16:31:50;;;;;;;4.10;3.60;;;;;;;12.40;56.08;97796.82;221992;1296;22560;-82
2023/04/12 16:36:52;;;;;;;4.60;3.50;;;;;;;12.49;55.60;97790.70;222240;1296;22560;-80
2023/04/12 16:41:54;;;;;;;4.50;3.50;;;;;;;12.31;54.73;97777.54;222010;1300;22556;-80
2023/04/12 16:46:57;;;;;;;6.00;3.30;;;;;;;12.04;55.16;97769.65;222008;1302;24359;-81
2023/04/12 16:52:00;;;;;;;4.60;3.40;;;;;;;11.80;55.04;97769.90;221723;1303;25463;-81
2023/04/12 16:57:02;;;;;;;7.10;3.60;;;;;;;11.59;55.19;97766.28;222183;1302;22570;-81
2023/04/12 17:02:06;;;;;;;5.10;3.60;;;;;;;11.41;55.64;97763.70;221973;1299;22551;-82
2023/04/12 17:07:09;;;;;;;5.10;3.80;;;;;;;11.22;56.06;97762.69;222025;1302;22557;-81
2023/04/12 17:12:11;;;;;;;6.90;4.60;;;;;;;11.05;56.45;97761.98;221978;1300;23084;-82
2023/04/12 17:17:14;;;;;;;10.00;7.80;;;;;;;10.85;56.77;97758.23;222186;1283;22560;-81
2023/04/12 17:22:16;;;;;;;22.30;12.20;;;;;;;10.67;57.48;97759.52;221875;1299;22557;-82
2023/04/12 17:27:21;;;;;;;18.00;12.50;;;;;;;10.48;57.90;97763.58;221809;1301;22566;-82
2023/04/12 17:32:22;;;;;;;15.40;10.50;;;;;;;10.29;58.07;97768.45;221966;1289;22566;-81
2023/04/12 17:37:26;;;;;;;14.70;10.10;;;;;;;10.10;58.92;97775.77;221912;1302;25329;-82
2023/04/12 17:42:28;;;;;;;16.70;10.70;;;;;;;9.89;59.51;97779.11;221997;1301;23014;-81
2023/04/12 17:47:34;;;;;;;19.50;13.80;;;;;;;9.70;59.75;97779.13;222186;1296;22559;-82
2023/04/12 17:52:36;;;;;;;18.00;11.60;;;;;;;9.50;60.14;97783.42;221898;1302;22562;-82
2023/04/12 17:57:40;;;;;;;84.80;60.40;;;;;;;9.31;60.10;97779.35;221814;1295;25308;-81
2023/04/12 18:02:44;;;;;;;16.90;12.20;;;;;;;9.14;60.47;97780.54;221604;1300;22614;-81
2023/04/12 18:07:47;;;;;;;18.60;12.10;;;;;;;8.98;60.43;97784.95;222065;1302;22541;-81
2023/04/12 18:12:49;;;;;;;16.40;11.80;;;;;;;8.83;60.97;97786.20;221792;1302;22592;-81
2023/04/12 18:17:52;;;;;;;17.00;12.30;;;;;;;8.67;61.51;97784.72;221965;1301;22544;-82
2023/04/12 18:22:54;;;;;;;17.20;10.80;;;;;;;8.53;61.60;97783.48;221660;1302;23811;-81
2023/04/12 18:27:56;;;;;;;18.30;12.00;;;;;;;8.39;61.83;97778.42;221911;1302;22559;-81
2023/04/12 18:32:58;;;;;;;42.20;27.80;;;;;;;8.26;62.26;97771.48;221961;1302;25300;-82
2023/04/12 18:38:04;;;;;;;19.60;12.20;;;;;;;8.15;62.29;97777.79;222167;1302;22564;-80
2023/04/12 18:43:06;;;;;;;25.10;13.90;;;;;;;8.04;62.41;97785.76;221971;1298;22553;-82
2023/04/12 18:48:09;;;;;;;36.10;20.30;;;;;;;7.94;63.09;97787.70;221990;1302;22556;-82
2023/04/12 18:53:11;;;;;;;42.50;24.30;;;;;;;7.84;63.46;97792.55;221974;1302;22553;-84
2023/04/12 18:58:15;;;;;;;39.40;22.80;;;;;;;7.72;63.96;97789.66;221947;1302;22557;-82
2023/04/12 19:03:17;;;;;;;38.50;22.80;;;;;;;7.61;64.04;97791.09;222011;1301;22553;-83
2023/04/12 19:08:21;;;;;;;42.10;22.90;;;;;;;7.49;64.57;97789.08;221944;1296;22592;-82
2023/04/12 19:13:23;;;;;;;42.60;23.50;;;;;;;7.39;64.45;97791.80;221958;1302;22605;-82
2023/04/12 19:18:29;;;;;;;41.10;25.60;;;;;;;7.31;64.59;97798.94;221992;1299;22555;-83
2023/04/12 19:23:31;;;;;;;42.60;26.10;;;;;;;7.25;65.01;97796.71;222018;1301;22634;-82
2023/04/12 19:28:36;;;;;;;38.70;24.70;;;;;;;7.20;65.21;97798.50;221786;1295;25463;-81
2023/04/12 19:33:40;;;;;;;42.30;25.30;;;;;;;7.16;65.31;97797.45;221690;1296;22548;-82
2023/04/12 19:38:43;;;;;;;49.30;28.40;;;;;;;7.13;65.58;97794.99;221824;1301;22623;-82
2023/04/12 19:43:46;;;;;;;50.50;29.70;;;;;;;7.09;65.76;97789.28;221882;1283;22582;-82
2023/04/12 19:48:50;;;;;;;45.10;27.00;;;;;;;6.99;66.38;97784.91;221825;1301;22573;-83
2023/04/12 19:53:53;;;;;;;57.00;32.00;;;;;;;6.86;66.30;97770.58;221883;1294;22579;-81
2023/04/12 19:58:56;;;;;;;41.70;22.90;;;;;;;6.74;66.96;97766.45;221958;1301;22581;-83
2023/04/12 20:03:59;;;;;;;38.90;22.60;;;;;;;6.68;67.14;97764.20;221955;1298;22572;-83
2023/04/12 20:09:01;;;;;;;33.60;21.40;;;;;;;6.63;67.80;97764.48;221894;1298;22573;-83
2023/04/12 20:14:07;;;;;;;39.90;21.80;;;;;;;6.55;67.95;97762.44;221948;1296;24649;-82
2023/04/12 20:19:09;;;;;;;31.20;19.20;;;;;;;6.46;68.46;97760.65;221891;1302;22564;-81
2023/04/12 20:24:11;;;;;;;33.60;21.00;;;;;;;6.39;68.40;97759.96;221803;1286;22560;-82
2023/04/12 20:29:14;;;;;;;34.70;22.70;;;;;;;6.32;68.86;97761.94;221913;1299;22528;-82
2023/04/12 20:34:18;;;;;;;40.20;25.70;;;;;;;6.26;69.37;97760.60;221941;1298;22578;-82
2023/04/12 20:39:22;;;;;;;39.80;26.10;;;;;;;6.18;69.55;97751.84;221949;1295;22556;-82
2023/04/12 20:44:26;;;;;;;39.10;26.10;;;;;;;6.06;69.76;97746.34;221896;1296;22556;-82
2023/04/12 20:49:29;;;;;;;33.10;23.70;;;;;;;5.93;70.05;97741.40;221665;1302;22589;-83
2023/04/12 20:54:32;;;;;;;29.50;20.10;;;;;;;5.83;70.70;97740.96;221582;1296;22570;-82
2023/04/12 20:59:35;;;;;;;27.60;19.90;;;;;;;5.78;70.99;97738.26;222008;1295;22575;-83
2023/04/12 21:04:39;;;;;;;30.90;22.90;;;;;;;5.84;71.71;97735.30;222070;1296;22564;-82
2023/04/12 21:09:43;;;;;;;32.60;22.50;;;;;;;5.94;71.92;97732.48;221876;1295;22563;-83
2023/04/12 21:15:10;;;;;;;33.60;23.90;;;;;;;6.01;72.11;97734.84;222014;1302;24300;-83
2023/04/12 21:20:12;;;;;;;30.10;22.30;;;;;;;6.02;72.43;97729.27;221818;1300;22561;-82
2023/04/12 21:25:15;;;;;;;40.00;29.60;;;;;;;6.00;72.27;97728.05;221850;1301;22505;-82
2023/04/12 21:30:17;;;;;;;39.70;31.00;;;;;;;5.92;72.18;97730.29;222040;1296;22573;-83
2023/04/12 21:35:24;;;;;;;34.50;26.00;;;;;;;5.80;72.40;97725.61;222015;1295;22567;-83
2023/04/12 21:40:27;;;;;;;27.20;20.60;;;;;;;5.73;72.84;97723.35;221920;1292;22708;-82
2023/04/12 21:45:49;;;;;;;29.60;21.90;;;;;;;5.72;73.34;97729.77;221985;1286;22556;-83
2023/04/12 21:50:53;;;;;;;40.30;26.10;;;;;;;5.65;73.45;97721.59;222110;1296;22560;-82
2023/04/12 21:55:56;;;;;;;35.60;25.10;;;;;;;5.61;73.63;97716.84;221921;1296;22549;-83
2023/04/12 22:00:58;;;;;;;30.20;21.90;;;;;;;5.58;73.91;97717.04;222058;1299;22600;-81
2023/04/12 22:06:00;;;;;;;30.70;20.10;;;;;;;5.55;74.41;97712.01;221937;1299;22578;-82
2023/04/12 22:11:06;;;;;;;30.50;20.80;;;;;;;5.54;74.71;97716.83;221888;1296;22567;-80
2023/04/12 22:16:12;;;;;;;28.10;20.50;;;;;;;5.50;74.44;97723.42;222010;1299;22587;-82
2023/04/12 22:21:15;;;;;;;38.10;26.60;;;;;;;5.48;74.95;97717.80;221745;1299;176766;-82
2023/04/12 22:26:17;;;;;;;33.30;23.30;;;;;;;5.45;75.21;97710.76;221980;1296;22577;-81
2023/04/12 22:31:21;;;;;;;36.70;25.70;;;;;;;5.52;75.94;97707.25;221895;1301;22569;-81
2023/04/12 22:36:25;;;;;;;37.90;27.60;;;;;;;5.54;75.68;97703.73;221995;1298;22681;-82
2023/04/12 22:41:31;;;;;;;37.60;26.30;;;;;;;5.52;75.60;97701.36;221992;1292;22556;-82
2023/04/12 22:46:37;;;;;;;38.00;27.30;;;;;;;5.50;75.74;97693.59;221962;1285;24813;-81
2023/04/12 22:51:41;;;;;;;40.00;28.40;;;;;;;5.45;75.91;97687.98;221799;1302;24284;-82
2023/04/12 22:56:46;;;;;;;38.40;28.30;;;;;;;5.37;76.01;97683.14;222068;1280;22585;-81
2023/04/12 23:01:49;;;;;;;41.90;31.30;;;;;;;5.29;76.24;97668.84;221904;1302;22559;-82
2023/04/12 23:06:55;;;;;;;45.70;32.20;;;;;;;5.22;76.36;97656.42;222050;1302;22620;-82
2023/04/12 23:11:58;;;;;;;40.80;28.60;;;;;;;5.16;76.60;97652.41;221697;1299;22638;-81
2023/04/12 23:17:02;;;;;;;45.40;31.40;;;;;;;5.13;76.90;97652.92;221978;1302;22566;-81
2023/04/12 23:22:05;;;;;;;41.80;31.60;;;;;;;5.11;76.99;97647.31;221811;1302;22574;-82
2023/04/12 23:27:06;;;;;;;51.50;33.70;;;;;;;5.08;77.12;97644.70;222043;1295;23227;-82